sensor_id;sensor_type;location;lat;lon;timestamp;temperature;humidity
22319;DHT22;11327;52.334;9.506;2022-07-21T00:01:32;24.90;99.90
22319;DHT22;11327;52.334;9.506;2022-07-21T00:04:53;24.90;99.90
22319;DHT22;11327;52.334;9.506;2022-07-21T00:08:14;24.90;99.90
22319;DHT22;11327;52.334;9.506;2022-07-21T00:11:35;24.80;99.90
22319;DHT22;11327;52.334;9.506;2022-07-21T00:14:56;24.70;99.90
22319;DHT22;11327;52.334;9.506;2022-07-21T00:18:19;24.70;99.90
22319;DHT22;11327;52.334;9.506;2022-07-21T00:21:40;24.60;99.90
22319;DHT22;11327;52.334;9.506;2022-07-21T00:25:01;24.50;99.90
22319;DHT22;11327;52.334;9.506;2022-07-21T00:28:22;24.40;99.90
22319;DHT22;11327;52.334;9.506;2022-07-21T00:31:44;24.30;99.90
22319;DHT22;11327;52.334;9.506;2022-07-21T00:35:06;24.10;99.90
22319;DHT22;11327;52.334;9.506;2022-07-21T00:38:27;24.00;99.90
22319;DHT22;11327;52.334;9.506;2022-07-21T00:41:48;23.80;99.90
22319;DHT22;11327;52.334;9.506;2022-07-21T00:45:10;23.70;99.90
22319;DHT22;11327;52.334;9.506;2022-07-21T00:48:31;23.60;99.90
22319;DHT22;11327;52.334;9.506;2022-07-21T00:51:53;23.50;99.90
22319;DHT22;11327;52.334;9.506;2022-07-21T00:55:16;23.50;99.90
22319;DHT22;11327;52.334;9.506;2022-07-21T00:58:39;23.40;99.90
22319;DHT22;11327;52.334;9.506;2022-07-21T01:02:00;23.30;99.90
22319;DHT22;11327;52.334;9.506;2022-07-21T01:05:22;23.30;99.90
22319;DHT22;11327;52.334;9.506;2022-07-21T01:08:43;23.20;99.90
22319;DHT22;11327;52.334;9.506;2022-07-21T01:12:05;23.20;99.90
22319;DHT22;11327;52.334;9.506;2022-07-21T01:15:26;23.20;99.90
22319;DHT22;11327;52.334;9.506;2022-07-21T01:18:47;23.10;99.90
22319;DHT22;11327;52.334;9.506;2022-07-21T01:22:08;23.10;99.90
22319;DHT22;11327;52.334;9.506;2022-07-21T01:25:30;23.10;99.90
22319;DHT22;11327;52.334;9.506;2022-07-21T01:28:52;23.00;99.90
22319;DHT22;11327;52.334;9.506;2022-07-21T01:32:13;23.10;99.90
22319;DHT22;11327;52.334;9.506;2022-07-21T01:35:34;23.10;99.90
22319;DHT22;11327;52.334;9.506;2022-07-21T01:38:55;23.10;99.90
22319;DHT22;11327;52.334;9.506;2022-07-21T01:42:35;23.10;99.90
22319;DHT22;11327;52.334;9.506;2022-07-21T01:45:56;23.00;99.90
22319;DHT22;11327;52.334;9.506;2022-07-21T01:49:19;23.00;99.90
22319;DHT22;11327;52.334;9.506;2022-07-21T01:52:41;23.00;99.90
22319;DHT22;11327;52.334;9.506;2022-07-21T01:56:02;23.00;99.90
22319;DHT22;11327;52.334;9.506;2022-07-21T01:59:23;23.00;99.90
22319;DHT22;11327;52.334;9.506;2022-07-21T02:02:44;23.00;99.90
22319;DHT22;11327;52.334;9.506;2022-07-21T02:06:06;22.90;99.90
22319;DHT22;11327;52.334;9.506;2022-07-21T02:09:28;22.90;99.90
22319;DHT22;11327;52.334;9.506;2022-07-21T02:12:49;22.80;99.90
22319;DHT22;11327;52.334;9.506;2022-07-21T02:16:11;22.80;99.90
22319;DHT22;11327;52.334;9.506;2022-07-21T02:19:32;22.80;99.90
22319;DHT22;11327;52.334;9.506;2022-07-21T02:22:53;22.80;99.90
22319;DHT22;11327;52.334;9.506;2022-07-21T02:26:14;22.70;99.90
22319;DHT22;11327;52.334;9.506;2022-07-21T02:29:35;22.60;99.90
22319;DHT22;11327;52.334;9.506;2022-07-21T02:32:56;22.60;99.90
22319;DHT22;11327;52.334;9.506;2022-07-21T02:36:17;22.60;99.90
22319;DHT22;11327;52.334;9.506;2022-07-21T02:39:38;22.50;99.90
22319;DHT22;11327;52.334;9.506;2022-07-21T02:43:00;22.40;99.90
22319;DHT22;11327;52.334;9.506;2022-07-21T02:46:21;22.40;99.90
22319;DHT22;11327;52.334;9.506;2022-07-21T02:49:42;22.40;99.90
22319;DHT22;11327;52.334;9.506;2022-07-21T02:53:06;22.30;99.90
22319;DHT22;11327;52.334;9.506;2022-07-21T02:56:27;22.30;99.90
22319;DHT22;11327;52.334;9.506;2022-07-21T02:59:48;22.20;99.90
22319;DHT22;11327;52.334;9.506;2022-07-21T03:03:10;22.20;99.90
22319;DHT22;11327;52.334;9.506;2022-07-21T03:06:31;22.20;99.90
22319;DHT22;11327;52.334;9.506;2022-07-21T03:09:52;22.20;99.90
22319;DHT22;11327;52.334;9.506;2022-07-21T03:13:13;22.10;99.90
22319;DHT22;11327;52.334;9.506;2022-07-21T03:16:34;22.00;99.90
22319;DHT22;11327;52.334;9.506;2022-07-21T03:19:55;22.00;99.90
22319;DHT22;11327;52.334;9.506;2022-07-21T03:23:16;22.20;99.90
22319;DHT22;11327;52.334;9.506;2022-07-21T03:26:37;22.20;99.90
22319;DHT22;11327;52.334;9.506;2022-07-21T03:29:59;22.20;99.90
22319;DHT22;11327;52.334;9.506;2022-07-21T03:33:20;22.20;99.90
22319;DHT22;11327;52.334;9.506;2022-07-21T03:36:41;22.20;99.90
22319;DHT22;11327;52.334;9.506;2022-07-21T03:40:02;22.10;99.90
22319;DHT22;11327;52.334;9.506;2022-07-21T03:43:23;22.20;99.90
22319;DHT22;11327;52.334;9.506;2022-07-21T03:46:44;22.20;99.90
22319;DHT22;11327;52.334;9.506;2022-07-21T03:50:06;22.20;99.90
22319;DHT22;11327;52.334;9.506;2022-07-21T03:53:27;22.10;99.90
22319;DHT22;11327;52.334;9.506;2022-07-21T03:56:48;22.10;99.90
22319;DHT22;11327;52.334;9.506;2022-07-21T04:00:11;22.10;99.90
22319;DHT22;11327;52.334;9.506;2022-07-21T04:03:33;22.00;99.90
22319;DHT22;11327;52.334;9.506;2022-07-21T04:06:55;22.10;99.90
22319;DHT22;11327;52.334;9.506;2022-07-21T04:10:19;22.00;99.90
22319;DHT22;11327;52.334;9.506;2022-07-21T04:13:41;22.00;99.90
22319;DHT22;11327;52.334;9.506;2022-07-21T04:17:02;22.00;99.90
22319;DHT22;11327;52.334;9.506;2022-07-21T04:20:23;21.20;99.90
22319;DHT22;11327;52.334;9.506;2022-07-21T04:23:44;22.00;99.90
22319;DHT22;11327;52.334;9.506;2022-07-21T04:27:05;22.00;99.90
22319;DHT22;11327;52.334;9.506;2022-07-21T04:30:27;21.90;99.90
22319;DHT22;11327;52.334;9.506;2022-07-21T04:33:48;21.90;99.90
22319;DHT22;11327;52.334;9.506;2022-07-21T04:37:09;21.90;99.90
22319;DHT22;11327;52.334;9.506;2022-07-21T04:40:30;21.90;99.90
22319;DHT22;11327;52.334;9.506;2022-07-21T04:43:51;21.80;99.90
22319;DHT22;11327;52.334;9.506;2022-07-21T04:47:12;21.70;99.90
22319;DHT22;11327;52.334;9.506;2022-07-21T04:50:33;21.70;99.90
22319;DHT22;11327;52.334;9.506;2022-07-21T04:53:54;21.70;99.90
22319;DHT22;11327;52.334;9.506;2022-07-21T04:57:15;21.80;99.90
22319;DHT22;11327;52.334;9.506;2022-07-21T05:00:36;21.80;99.90
22319;DHT22;11327;52.334;9.506;2022-07-21T05:03:57;21.90;99.90
22319;DHT22;11327;52.334;9.506;2022-07-21T05:07:18;21.90;99.90
22319;DHT22;11327;52.334;9.506;2022-07-21T05:10:39;22.00;99.90
22319;DHT22;11327;52.334;9.506;2022-07-21T05:14:00;21.90;99.90
22319;DHT22;11327;52.334;9.506;2022-07-21T05:17:21;22.00;99.90
22319;DHT22;11327;52.334;9.506;2022-07-21T05:20:42;22.00;99.90
22319;DHT22;11327;52.334;9.506;2022-07-21T05:24:04;22.10;99.90
22319;DHT22;11327;52.334;9.506;2022-07-21T05:27:25;22.10;99.90
22319;DHT22;11327;52.334;9.506;2022-07-21T05:30:46;22.10;99.90
22319;DHT22;11327;52.334;9.506;2022-07-21T05:34:07;22.10;99.90
22319;DHT22;11327;52.334;9.506;2022-07-21T05:37:28;22.00;99.90
22319;DHT22;11327;52.334;9.506;2022-07-21T05:40:49;22.10;99.90
22319;DHT22;11327;52.334;9.506;2022-07-21T05:44:10;22.00;99.90
22319;DHT22;11327;52.334;9.506;2022-07-21T05:47:31;22.00;99.90
22319;DHT22;11327;52.334;9.506;2022-07-21T05:50:52;22.00;99.90
22319;DHT22;11327;52.334;9.506;2022-07-21T05:54:13;22.10;99.90
22319;DHT22;11327;52.334;9.506;2022-07-21T05:57:34;22.00;99.90
22319;DHT22;11327;52.334;9.506;2022-07-21T06:00:55;21.90;99.90
22319;DHT22;11327;52.334;9.506;2022-07-21T06:04:33;21.80;99.90
22319;DHT22;11327;52.334;9.506;2022-07-21T06:07:54;21.80;99.90
22319;DHT22;11327;52.334;9.506;2022-07-21T06:11:17;21.80;99.90
22319;DHT22;11327;52.334;9.506;2022-07-21T06:14:38;21.80;99.90
22319;DHT22;11327;52.334;9.506;2022-07-21T06:17:59;21.80;99.90
22319;DHT22;11327;52.334;9.506;2022-07-21T06:21:20;21.80;99.90
22319;DHT22;11327;52.334;9.506;2022-07-21T06:24:41;21.90;99.90
22319;DHT22;11327;52.334;9.506;2022-07-21T06:28:03;21.90;99.90
22319;DHT22;11327;52.334;9.506;2022-07-21T06:31:24;22.00;99.90
22319;DHT22;11327;52.334;9.506;2022-07-21T06:34:45;22.00;99.90
22319;DHT22;11327;52.334;9.506;2022-07-21T06:38:06;21.90;99.90
22319;DHT22;11327;52.334;9.506;2022-07-21T06:41:27;22.30;99.90
22319;DHT22;11327;52.334;9.506;2022-07-21T06:44:48;21.70;99.90
22319;DHT22;11327;52.334;9.506;2022-07-21T06:48:09;21.70;99.90
22319;DHT22;11327;52.334;9.506;2022-07-21T06:51:30;21.80;99.90
22319;DHT22;11327;52.334;9.506;2022-07-21T06:54:51;21.80;99.90
22319;DHT22;11327;52.334;9.506;2022-07-21T06:58:18;21.50;99.90
22319;DHT22;11327;52.334;9.506;2022-07-21T07:01:39;21.90;99.90
22319;DHT22;11327;52.334;9.506;2022-07-21T07:05:00;22.00;99.90
22319;DHT22;11327;52.334;9.506;2022-07-21T07:08:21;22.00;99.90
22319;DHT22;11327;52.334;9.506;2022-07-21T07:11:42;21.90;99.90
22319;DHT22;11327;52.334;9.506;2022-07-21T07:15:04;21.80;99.90
22319;DHT22;11327;52.334;9.506;2022-07-21T07:18:25;21.90;99.90
22319;DHT22;11327;52.334;9.506;2022-07-21T07:21:46;21.90;99.90
22319;DHT22;11327;52.334;9.506;2022-07-21T07:25:08;21.90;99.90
22319;DHT22;11327;52.334;9.506;2022-07-21T07:28:29;21.80;99.90
22319;DHT22;11327;52.334;9.506;2022-07-21T07:31:50;21.80;99.90
22319;DHT22;11327;52.334;9.506;2022-07-21T07:35:11;21.60;99.90
22319;DHT22;11327;52.334;9.506;2022-07-21T07:38:32;21.60;99.90
22319;DHT22;11327;52.334;9.506;2022-07-21T07:41:53;21.60;99.90
22319;DHT22;11327;52.334;9.506;2022-07-21T07:45:16;21.70;99.90
22319;DHT22;11327;52.334;9.506;2022-07-21T07:48:37;21.70;99.90
22319;DHT22;11327;52.334;9.506;2022-07-21T07:51:58;21.70;99.90
22319;DHT22;11327;52.334;9.506;2022-07-21T07:55:19;21.80;99.90
22319;DHT22;11327;52.334;9.506;2022-07-21T07:58:40;21.90;99.90
22319;DHT22;11327;52.334;9.506;2022-07-21T08:02:01;22.00;99.90
22319;DHT22;11327;52.334;9.506;2022-07-21T08:05:22;22.10;99.90
22319;DHT22;11327;52.334;9.506;2022-07-21T08:08:43;22.10;99.90
22319;DHT22;11327;52.334;9.506;2022-07-21T08:12:05;22.00;99.90
22319;DHT22;11327;52.334;9.506;2022-07-21T08:15:26;22.10;99.90
22319;DHT22;11327;52.334;9.506;2022-07-21T08:18:47;22.10;99.90
22319;DHT22;11327;52.334;9.506;2022-07-21T08:22:08;22.20;99.90
22319;DHT22;11327;52.334;9.506;2022-07-21T08:25:29;22.20;99.90
22319;DHT22;11327;52.334;9.506;2022-07-21T08:28:51;22.20;99.90
22319;DHT22;11327;52.334;9.506;2022-07-21T08:32:12;22.20;99.90
22319;DHT22;11327;52.334;9.506;2022-07-21T08:35:33;22.20;99.90
22319;DHT22;11327;52.334;9.506;2022-07-21T08:38:54;22.10;99.90
22319;DHT22;11327;52.334;9.506;2022-07-21T08:42:16;22.00;99.90
22319;DHT22;11327;52.334;9.506;2022-07-21T08:45:37;22.10;99.90
22319;DHT22;11327;52.334;9.506;2022-07-21T08:49:01;22.10;99.90
22319;DHT22;11327;52.334;9.506;2022-07-21T08:52:22;22.20;99.90
22319;DHT22;11327;52.334;9.506;2022-07-21T08:55:43;21.40;99.90
22319;DHT22;11327;52.334;9.506;2022-07-21T08:59:04;22.00;99.90
22319;DHT22;11327;52.334;9.506;2022-07-21T09:02:31;22.00;99.90
22319;DHT22;11327;52.334;9.506;2022-07-21T09:06:11;21.90;99.90
22319;DHT22;11327;52.334;9.506;2022-07-21T09:09:35;21.90;99.90
22319;DHT22;11327;52.334;9.506;2022-07-21T09:12:59;21.90;99.90
22319;DHT22;11327;52.334;9.506;2022-07-21T09:16:32;21.90;99.90
22319;DHT22;11327;52.334;9.506;2022-07-21T09:19:53;21.90;99.90
22319;DHT22;11327;52.334;9.506;2022-07-21T09:23:15;22.00;99.90
22319;DHT22;11327;52.334;9.506;2022-07-21T09:30:19;22.30;99.90
22319;DHT22;11327;52.334;9.506;2022-07-21T09:33:43;22.50;99.90
22319;DHT22;11327;52.334;9.506;2022-07-21T09:37:06;22.60;99.90
22319;DHT22;11327;52.334;9.506;2022-07-21T09:40:27;22.70;99.90
22319;DHT22;11327;52.334;9.506;2022-07-21T09:43:53;22.80;99.90
22319;DHT22;11327;52.334;9.506;2022-07-21T09:47:17;23.00;99.90
22319;DHT22;11327;52.334;9.506;2022-07-21T09:50:38;23.30;99.90
22319;DHT22;11327;52.334;9.506;2022-07-21T09:54:02;23.70;99.90
22319;DHT22;11327;52.334;9.506;2022-07-21T09:57:24;24.10;99.90
22319;DHT22;11327;52.334;9.506;2022-07-21T10:00:45;24.20;99.90
22319;DHT22;11327;52.334;9.506;2022-07-21T10:04:06;24.10;99.90
22319;DHT22;11327;52.334;9.506;2022-07-21T10:07:28;24.50;99.90
22319;DHT22;11327;52.334;9.506;2022-07-21T10:10:49;24.70;99.90
22319;DHT22;11327;52.334;9.506;2022-07-21T10:14:11;24.80;99.90
22319;DHT22;11327;52.334;9.506;2022-07-21T10:17:32;24.80;99.90
22319;DHT22;11327;52.334;9.506;2022-07-21T10:20:56;24.80;99.90
22319;DHT22;11327;52.334;9.506;2022-07-21T10:24:18;24.60;99.90
22319;DHT22;11327;52.334;9.506;2022-07-21T10:31:24;24.70;99.90
22319;DHT22;11327;52.334;9.506;2022-07-21T10:34:46;24.60;99.90
22319;DHT22;11327;52.334;9.506;2022-07-21T10:41:54;24.70;99.90
22319;DHT22;11327;52.334;9.506;2022-07-21T10:45:35;24.70;99.90
22319;DHT22;11327;52.334;9.506;2022-07-21T10:48:57;24.70;99.90
22319;DHT22;11327;52.334;9.506;2022-07-21T10:56:03;24.90;99.90
22319;DHT22;11327;52.334;9.506;2022-07-21T10:59:24;24.90;99.90
22319;DHT22;11327;52.334;9.506;2022-07-21T11:02:57;24.80;99.90
22319;DHT22;11327;52.334;9.506;2022-07-21T11:10:13;25.00;99.90
22319;DHT22;11327;52.334;9.506;2022-07-21T11:13:07;25.20;99.90
22319;DHT22;11327;52.334;9.506;2022-07-21T11:20:15;25.70;99.90
22319;DHT22;11327;52.334;9.506;2022-07-21T11:23:39;25.90;99.90
22319;DHT22;11327;52.334;9.506;2022-07-21T11:27:04;26.00;99.90
22319;DHT22;11327;52.334;9.506;2022-07-21T11:30:25;26.10;99.90
22319;DHT22;11327;52.334;9.506;2022-07-21T11:33:47;26.10;99.90
22319;DHT22;11327;52.334;9.506;2022-07-21T11:37:11;25.90;99.90
22319;DHT22;11327;52.334;9.506;2022-07-21T11:40:32;25.90;99.90
22319;DHT22;11327;52.334;9.506;2022-07-21T11:43:53;25.70;99.90
22319;DHT22;11327;52.334;9.506;2022-07-21T11:47:15;25.60;99.90
22319;DHT22;11327;52.334;9.506;2022-07-21T11:50:36;25.60;99.90
22319;DHT22;11327;52.334;9.506;2022-07-21T11:53:57;25.70;99.90
22319;DHT22;11327;52.334;9.506;2022-07-21T11:57:19;25.80;99.90
22319;DHT22;11327;52.334;9.506;2022-07-21T12:00:40;25.70;99.90
22319;DHT22;11327;52.334;9.506;2022-07-21T12:04:01;25.80;99.90
22319;DHT22;11327;52.334;9.506;2022-07-21T12:07:25;25.70;99.90
22319;DHT22;11327;52.334;9.506;2022-07-21T12:10:46;25.60;99.90
22319;DHT22;11327;52.334;9.506;2022-07-21T12:14:07;25.50;99.90
22319;DHT22;11327;52.334;9.506;2022-07-21T12:17:41;25.10;99.90
22319;DHT22;11327;52.334;9.506;2022-07-21T12:21:03;24.70;99.90
22319;DHT22;11327;52.334;9.506;2022-07-21T12:24:55;24.50;99.90
22319;DHT22;11327;52.334;9.506;2022-07-21T12:28:16;24.40;99.90
22319;DHT22;11327;52.334;9.506;2022-07-21T12:31:37;23.90;99.90
22319;DHT22;11327;52.334;9.506;2022-07-21T12:34:58;23.70;99.90
22319;DHT22;11327;52.334;9.506;2022-07-21T12:38:19;23.30;99.90
22319;DHT22;11327;52.334;9.506;2022-07-21T12:41:44;22.70;99.90
22319;DHT22;11327;52.334;9.506;2022-07-21T12:45:17;22.30;99.90
22319;DHT22;11327;52.334;9.506;2022-07-21T12:48:38;21.90;99.90
22319;DHT22;11327;52.334;9.506;2022-07-21T12:52:00;21.90;99.90
22319;DHT22;11327;52.334;9.506;2022-07-21T12:55:21;21.80;99.90
22319;DHT22;11327;52.334;9.506;2022-07-21T12:58:42;21.60;99.90
22319;DHT22;11327;52.334;9.506;2022-07-21T13:02:04;21.40;99.90
22319;DHT22;11327;52.334;9.506;2022-07-21T13:05:26;20.90;99.90
22319;DHT22;11327;52.334;9.506;2022-07-21T13:08:48;20.80;99.90
22319;DHT22;11327;52.334;9.506;2022-07-21T13:12:09;20.60;99.90
22319;DHT22;11327;52.334;9.506;2022-07-21T13:15:30;20.60;99.90
22319;DHT22;11327;52.334;9.506;2022-07-21T13:18:51;20.70;99.90
22319;DHT22;11327;52.334;9.506;2022-07-21T13:22:12;20.70;99.90
22319;DHT22;11327;52.334;9.506;2022-07-21T13:25:33;20.90;99.90
22319;DHT22;11327;52.334;9.506;2022-07-21T13:28:55;21.00;99.90
22319;DHT22;11327;52.334;9.506;2022-07-21T13:32:16;21.30;99.90
22319;DHT22;11327;52.334;9.506;2022-07-21T13:35:37;21.00;99.90
22319;DHT22;11327;52.334;9.506;2022-07-21T13:38:58;21.60;99.90
22319;DHT22;11327;52.334;9.506;2022-07-21T13:42:19;21.70;99.90
22319;DHT22;11327;52.334;9.506;2022-07-21T13:45:40;21.90;99.90
22319;DHT22;11327;52.334;9.506;2022-07-21T13:49:01;21.90;99.90
22319;DHT22;11327;52.334;9.506;2022-07-21T13:52:22;22.00;99.90
22319;DHT22;11327;52.334;9.506;2022-07-21T13:55:43;22.20;99.90
22319;DHT22;11327;52.334;9.506;2022-07-21T13:59:04;22.20;99.90
22319;DHT22;11327;52.334;9.506;2022-07-21T14:02:26;22.30;99.90
22319;DHT22;11327;52.334;9.506;2022-07-21T14:05:47;22.40;99.90
22319;DHT22;11327;52.334;9.506;2022-07-21T14:09:08;22.20;99.90
22319;DHT22;11327;52.334;9.506;2022-07-21T14:12:29;22.20;99.90
22319;DHT22;11327;52.334;9.506;2022-07-21T14:15:50;22.10;99.90
22319;DHT22;11327;52.334;9.506;2022-07-21T14:19:11;22.10;99.90
22319;DHT22;11327;52.334;9.506;2022-07-21T14:22:32;22.10;99.90
22319;DHT22;11327;52.334;9.506;2022-07-21T14:25:53;22.10;99.90
22319;DHT22;11327;52.334;9.506;2022-07-21T14:29:14;22.10;99.90
22319;DHT22;11327;52.334;9.506;2022-07-21T14:32:35;22.10;99.90
22319;DHT22;11327;52.334;9.506;2022-07-21T14:35:56;22.00;99.90
22319;DHT22;11327;52.334;9.506;2022-07-21T14:39:18;22.10;99.90
22319;DHT22;11327;52.334;9.506;2022-07-21T14:42:39;22.30;99.90
22319;DHT22;11327;52.334;9.506;2022-07-21T14:46:00;22.40;99.90
22319;DHT22;11327;52.334;9.506;2022-07-21T14:49:21;22.40;99.90
22319;DHT22;11327;52.334;9.506;2022-07-21T14:52:42;22.30;99.90
22319;DHT22;11327;52.334;9.506;2022-07-21T14:56:04;22.10;99.90
22319;DHT22;11327;52.334;9.506;2022-07-21T14:59:24;22.00;99.90
22319;DHT22;11327;52.334;9.506;2022-07-21T15:02:45;22.00;99.90
22319;DHT22;11327;52.334;9.506;2022-07-21T15:06:06;21.80;99.90
22319;DHT22;11327;52.334;9.506;2022-07-21T15:09:28;21.80;99.90
22319;DHT22;11327;52.334;9.506;2022-07-21T15:12:49;21.80;99.90
22319;DHT22;11327;52.334;9.506;2022-07-21T15:16:10;21.80;99.90
22319;DHT22;11327;52.334;9.506;2022-07-21T15:19:31;21.80;99.90
22319;DHT22;11327;52.334;9.506;2022-07-21T15:22:52;21.90;99.90
22319;DHT22;11327;52.334;9.506;2022-07-21T15:26:13;21.90;99.90
22319;DHT22;11327;52.334;9.506;2022-07-21T15:29:34;22.00;99.90
22319;DHT22;11327;52.334;9.506;2022-07-21T15:32:55;22.10;99.90
22319;DHT22;11327;52.334;9.506;2022-07-21T15:36:16;22.10;99.90
22319;DHT22;11327;52.334;9.506;2022-07-21T15:39:38;22.20;99.90
22319;DHT22;11327;52.334;9.506;2022-07-21T15:43:00;22.30;99.90
22319;DHT22;11327;52.334;9.506;2022-07-21T15:46:21;22.40;99.90
22319;DHT22;11327;52.334;9.506;2022-07-21T15:49:44;22.70;99.90
22319;DHT22;11327;52.334;9.506;2022-07-21T15:53:10;22.90;99.90
22319;DHT22;11327;52.334;9.506;2022-07-21T15:56:31;23.10;99.90
22319;DHT22;11327;52.334;9.506;2022-07-21T15:59:52;23.80;99.90
22319;DHT22;11327;52.334;9.506;2022-07-21T16:03:13;23.50;99.90
22319;DHT22;11327;52.334;9.506;2022-07-21T16:06:35;23.70;99.90
22319;DHT22;11327;52.334;9.506;2022-07-21T16:09:56;23.90;99.90
22319;DHT22;11327;52.334;9.506;2022-07-21T16:13:17;23.80;99.90
22319;DHT22;11327;52.334;9.506;2022-07-21T16:16:38;23.90;99.90
22319;DHT22;11327;52.334;9.506;2022-07-21T16:19:59;23.60;99.90
22319;DHT22;11327;52.334;9.506;2022-07-21T16:23:20;23.60;99.90
22319;DHT22;11327;52.334;9.506;2022-07-21T16:26:42;23.70;99.90
22319;DHT22;11327;52.334;9.506;2022-07-21T16:30:04;23.70;99.90
22319;DHT22;11327;52.334;9.506;2022-07-21T16:33:26;23.70;99.90
22319;DHT22;11327;52.334;9.506;2022-07-21T16:36:47;23.70;99.90
22319;DHT22;11327;52.334;9.506;2022-07-21T16:40:08;23.80;99.90
22319;DHT22;11327;52.334;9.506;2022-07-21T16:43:29;23.80;99.90
22319;DHT22;11327;52.334;9.506;2022-07-21T16:46:50;23.80;99.90
22319;DHT22;11327;52.334;9.506;2022-07-21T16:50:12;23.80;99.90
22319;DHT22;11327;52.334;9.506;2022-07-21T16:53:33;23.90;99.90
22319;DHT22;11327;52.334;9.506;2022-07-21T16:56:54;23.80;99.90
22319;DHT22;11327;52.334;9.506;2022-07-21T17:00:15;23.80;99.90
22319;DHT22;11327;52.334;9.506;2022-07-21T17:03:37;23.60;99.90
22319;DHT22;11327;52.334;9.506;2022-07-21T17:06:58;23.50;99.90
22319;DHT22;11327;52.334;9.506;2022-07-21T17:10:19;23.30;99.90
22319;DHT22;11327;52.334;9.506;2022-07-21T17:13:40;23.30;99.90
22319;DHT22;11327;52.334;9.506;2022-07-21T17:17:01;23.20;99.90
22319;DHT22;11327;52.334;9.506;2022-07-21T17:20:22;23.30;99.90
22319;DHT22;11327;52.334;9.506;2022-07-21T17:23:44;23.30;99.90
22319;DHT22;11327;52.334;9.506;2022-07-21T17:27:05;23.40;99.90
22319;DHT22;11327;52.334;9.506;2022-07-21T17:30:25;23.30;99.90
22319;DHT22;11327;52.334;9.506;2022-07-21T17:33:46;23.30;99.90
22319;DHT22;11327;52.334;9.506;2022-07-21T17:37:07;23.20;99.90
22319;DHT22;11327;52.334;9.506;2022-07-21T17:40:29;23.30;99.90
22319;DHT22;11327;52.334;9.506;2022-07-21T17:43:50;23.30;99.90
22319;DHT22;11327;52.334;9.506;2022-07-21T17:47:11;23.30;99.90
22319;DHT22;11327;52.334;9.506;2022-07-21T17:50:32;23.30;99.90
22319;DHT22;11327;52.334;9.506;2022-07-21T17:53:53;23.30;99.90
22319;DHT22;11327;52.334;9.506;2022-07-21T17:57:14;23.30;99.90
22319;DHT22;11327;52.334;9.506;2022-07-21T18:00:53;23.40;99.90
22319;DHT22;11327;52.334;9.506;2022-07-21T18:04:16;23.30;99.90
22319;DHT22;11327;52.334;9.506;2022-07-21T18:07:37;23.20;99.90
22319;DHT22;11327;52.334;9.506;2022-07-21T18:10:58;23.10;99.90
22319;DHT22;11327;52.334;9.506;2022-07-21T18:14:19;23.00;99.90
22319;DHT22;11327;52.334;9.506;2022-07-21T18:17:40;22.80;99.90
22319;DHT22;11327;52.334;9.506;2022-07-21T18:21:03;22.70;99.90
22319;DHT22;11327;52.334;9.506;2022-07-21T18:24:24;22.60;99.90
22319;DHT22;11327;52.334;9.506;2022-07-21T18:27:45;22.60;99.90
22319;DHT22;11327;52.334;9.506;2022-07-21T18:31:06;22.50;99.90
22319;DHT22;11327;52.334;9.506;2022-07-21T18:34:29;22.40;99.90
22319;DHT22;11327;52.334;9.506;2022-07-21T18:37:50;22.40;99.90
22319;DHT22;11327;52.334;9.506;2022-07-21T18:41:11;22.30;99.90
22319;DHT22;11327;52.334;9.506;2022-07-21T18:44:32;22.30;99.90
22319;DHT22;11327;52.334;9.506;2022-07-21T18:47:53;22.10;99.90
22319;DHT22;11327;52.334;9.506;2022-07-21T18:51:15;22.00;99.90
22319;DHT22;11327;52.334;9.506;2022-07-21T18:54:36;21.90;99.90
22319;DHT22;11327;52.334;9.506;2022-07-21T18:57:57;21.90;99.90
22319;DHT22;11327;52.334;9.506;2022-07-21T19:01:19;21.70;99.90
22319;DHT22;11327;52.334;9.506;2022-07-21T19:04:40;21.60;99.90
22319;DHT22;11327;52.334;9.506;2022-07-21T19:08:01;21.60;99.90
22319;DHT22;11327;52.334;9.506;2022-07-21T19:11:22;21.60;99.90
22319;DHT22;11327;52.334;9.506;2022-07-21T19:14:43;21.50;99.90
22319;DHT22;11327;52.334;9.506;2022-07-21T19:18:04;21.50;99.90
22319;DHT22;11327;52.334;9.506;2022-07-21T19:21:25;21.40;99.90
22319;DHT22;11327;52.334;9.506;2022-07-21T19:24:47;21.40;99.90
22319;DHT22;11327;52.334;9.506;2022-07-21T19:28:09;21.40;99.90
22319;DHT22;11327;52.334;9.506;2022-07-21T19:31:30;21.40;99.90
22319;DHT22;11327;52.334;9.506;2022-07-21T19:34:51;21.10;99.90
22319;DHT22;11327;52.334;9.506;2022-07-21T19:38:12;21.10;99.90
22319;DHT22;11327;52.334;9.506;2022-07-21T19:41:33;21.00;99.90
22319;DHT22;11327;52.334;9.506;2022-07-21T19:44:54;20.90;99.90
22319;DHT22;11327;52.334;9.506;2022-07-21T19:48:15;20.80;99.90
22319;DHT22;11327;52.334;9.506;2022-07-21T19:51:36;20.70;99.90
22319;DHT22;11327;52.334;9.506;2022-07-21T19:54:57;20.70;99.90
22319;DHT22;11327;52.334;9.506;2022-07-21T19:58:18;20.70;99.90
22319;DHT22;11327;52.334;9.506;2022-07-21T20:01:39;20.60;99.90
22319;DHT22;11327;52.334;9.506;2022-07-21T20:05:00;20.60;99.90
22319;DHT22;11327;52.334;9.506;2022-07-21T20:08:22;20.50;99.90
22319;DHT22;11327;52.334;9.506;2022-07-21T20:11:43;20.50;99.90
22319;DHT22;11327;52.334;9.506;2022-07-21T20:15:06;20.40;99.90
22319;DHT22;11327;52.334;9.506;2022-07-21T20:18:28;20.40;99.90
22319;DHT22;11327;52.334;9.506;2022-07-21T20:21:49;20.40;99.90
22319;DHT22;11327;52.334;9.506;2022-07-21T20:25:10;20.40;99.90
22319;DHT22;11327;52.334;9.506;2022-07-21T20:28:31;20.40;99.90
22319;DHT22;11327;52.334;9.506;2022-07-21T20:31:52;20.30;99.90
22319;DHT22;11327;52.334;9.506;2022-07-21T20:35:13;20.30;99.90
22319;DHT22;11327;52.334;9.506;2022-07-21T20:38:34;20.20;99.90
22319;DHT22;11327;52.334;9.506;2022-07-21T20:41:55;20.20;99.90
22319;DHT22;11327;52.334;9.506;2022-07-21T20:45:17;20.20;99.90
22319;DHT22;11327;52.334;9.506;2022-07-21T20:48:38;20.10;99.90
22319;DHT22;11327;52.334;9.506;2022-07-21T20:51:59;20.20;99.90
22319;DHT22;11327;52.334;9.506;2022-07-21T20:55:20;20.30;99.90
22319;DHT22;11327;52.334;9.506;2022-07-21T20:58:42;20.20;99.90
22319;DHT22;11327;52.334;9.506;2022-07-21T21:02:03;20.20;99.90
22319;DHT22;11327;52.334;9.506;2022-07-21T21:05:24;20.20;99.90
22319;DHT22;11327;52.334;9.506;2022-07-21T21:08:45;20.20;99.90
22319;DHT22;11327;52.334;9.506;2022-07-21T21:12:06;20.10;99.90
22319;DHT22;11327;52.334;9.506;2022-07-21T21:15:28;20.10;99.90
22319;DHT22;11327;52.334;9.506;2022-07-21T21:18:49;20.10;99.90
22319;DHT22;11327;52.334;9.506;2022-07-21T21:22:11;20.10;99.90
22319;DHT22;11327;52.334;9.506;2022-07-21T21:25:32;20.00;99.90
22319;DHT22;11327;52.334;9.506;2022-07-21T21:28:54;20.00;99.90
22319;DHT22;11327;52.334;9.506;2022-07-21T21:32:15;20.00;99.90
22319;DHT22;11327;52.334;9.506;2022-07-21T21:35:36;19.90;99.90